Cambridge Bay Airport
CYCB : now visible

Airfield :











YOU CAN JOIN US ON...

 
LOGIN :

Register | Disclaimer

   EN    FR    IT 

 









Legend :    VFR   Marginal VFR   IFR   Intensive IFR   Very Intensive IFR
Visi :
Ceiling :
>= 8 km
>= 3000ft
5 to 8 km
1000 to 3000 ft
1500m to 5 km
500 to 1000 ft
800 to 1500m
200 to 500 ft
< 800m
< 200 ft
Symbols :   Thunderstorms  Fog  Heavy snow  Heavy precipitations  Wind > 20 kt







- Airport Elevation : 90 ft
- IATA code : YCB


CYCB - Cambridge Bay

CURRENT METAR :
  • 220145Z 09014G20KT 6SM BR OVC009 M02/M03 A2974 RMK SC8 SLP076

EXPIRED METARs :
  • 220100Z 07015KT 6SM BR OVC007 M01/M03 A2974 RMK SC8 SLP075
  • 220000Z 08015KT 4SM BR OVC006 M01/M02 A2975 RMK SC8 SLP079
  • 212300Z 08014KT 15SM BKN006 M01/M02 A2975 RMK SC7 CIG RAG SLP080

TAF AMD TAF CYCB
Valid from the 22 at 01:00 until the 22 at 13:00 UTC


220149Z 2201/2213 08015KT 4SM BR OVC006
TEMPO 2201/2203 P6SM NSW OVC010
FM220600 08015KT 4SM BR OVC006
TEMPO 2206/2213 2SM BR OVC004 RMK NXT FCST BY 220700Z
No reported NOTAMs for that airfield.



MET'MAP, your aeronautical weather chart ! - Copyright ORBIFLY December 2007 - Disclaimer

ORBIFLY MET'MAP TEAM :

Programming & Development : Alexandra Zaïnal
Concept & Development : Baudouin d'Aumeries
Co-Development & Prog : Marc-Olivier Méhu
Technical & hardware support : Manuel Goepfert

Contact : metmap@orbifly.com




SOURCES & CREDITS :

   NOAA       Earth
Advisory